createdAt,value
2023-01-18T00:00:41.263Z,16.30
2023-01-18T00:03:13.274Z,19.98
2023-01-18T00:05:41.438Z,18.85
2023-01-18T00:08:09.921Z,21.73
2023-01-18T00:10:36.863Z,18.65
2023-01-18T00:13:04.122Z,18.95
2023-01-18T00:15:34.816Z,21.60
2023-01-18T00:18:01.992Z,19.65
2023-01-18T00:20:30.113Z,14.52
2023-01-18T00:22:59.198Z,15.70
2023-01-18T00:25:26.137Z,13.45
2023-01-18T00:27:54.961Z,17.50
2023-01-18T00:30:25.061Z,10.93
2023-01-18T00:32:59.186Z,12.52
2023-01-18T00:37:54.096Z,13.50
2023-01-18T00:40:22.413Z,13.75
2023-01-18T00:43:07.578Z,12.85
2023-01-18T00:45:34.311Z,14.77
2023-01-18T00:48:02.770Z,12.82
2023-01-18T00:50:29.687Z,15.32
2023-01-18T00:52:58.608Z,13.38
2023-01-18T00:55:26.538Z,12.00
2023-01-18T00:57:53.187Z,14.63
2023-01-18T01:00:20.445Z,15.88
2023-01-18T01:02:47.093Z,11.45
2023-01-18T01:05:38.131Z,14.13
2023-01-18T01:08:06.075Z,20.92
2023-01-18T01:10:36.038Z,17.23
2023-01-18T01:13:21.168Z,11.30
2023-01-18T01:16:06.090Z,11.38
2023-01-18T01:18:51.385Z,12.70
2023-01-18T01:21:36.959Z,16.52
2023-01-18T01:24:22.177Z,11.20
2023-01-18T01:26:48.786Z,10.63
2023-01-18T01:29:16.034Z,11.07
2023-01-18T01:31:42.667Z,8.05
2023-01-18T01:34:09.902Z,9.38
2023-01-18T01:36:36.632Z,10.48
2023-01-18T01:39:03.428Z,11.95
2023-01-18T01:41:40.568Z,9.43
2023-01-18T01:44:20.132Z,12.82
2023-01-18T01:47:06.805Z,10.55
2023-01-18T01:49:35.032Z,12.43
2023-01-18T01:52:08.020Z,8.57
2023-01-18T01:54:47.688Z,10.25
2023-01-18T01:57:31.874Z,18.02
2023-01-18T02:00:08.203Z,11.30
2023-01-18T02:02:35.790Z,21.15
2023-01-18T02:05:05.486Z,15.18
2023-01-18T02:07:32.862Z,15.82
2023-01-18T02:10:00.936Z,20.75
2023-01-18T02:12:29.273Z,13.30
2023-01-18T02:14:57.971Z,15.93
2023-01-18T02:17:38.600Z,18.70
2023-01-18T02:20:24.865Z,24.67
2023-01-18T02:23:19.251Z,21.55
2023-01-18T02:25:51.652Z,18.42
2023-01-18T02:28:30.022Z,32.05
2023-01-18T02:31:18.385Z,28.00
2023-01-18T02:33:45.560Z,28.13
2023-01-18T02:36:31.861Z,18.88
2023-01-18T02:39:10.731Z,19.08
2023-01-18T02:42:07.205Z,20.80
2023-01-18T02:44:59.276Z,18.73
2023-01-18T02:47:27.760Z,24.33
2023-01-18T02:49:56.671Z,23.17
2023-01-18T02:52:53.638Z,29.67
2023-01-18T02:55:41.943Z,27.38
2023-01-18T02:58:33.962Z,22.98
2023-01-18T03:01:11.977Z,25.58
2023-01-18T03:03:42.493Z,25.50
2023-01-18T03:06:09.313Z,26.38
2023-01-18T03:08:40.632Z,25.20
2023-01-18T03:11:16.671Z,27.45
2023-01-18T03:13:43.232Z,23.30
2023-01-18T03:16:18.590Z,18.77
2023-01-18T03:19:35.581Z,15.27
2023-01-18T03:22:03.143Z,15.25
2023-01-18T03:24:31.296Z,16.63
2023-01-18T03:27:18.090Z,13.35
2023-01-18T03:30:05.482Z,18.63
2023-01-18T03:32:53.567Z,19.67
2023-01-18T03:35:26.881Z,20.73
2023-01-18T03:37:56.384Z,20.10
2023-01-18T03:40:26.555Z,18.42
2023-01-18T03:43:02.023Z,14.38
2023-01-18T03:45:42.357Z,13.55
2023-01-18T03:48:10.420Z,14.82
2023-01-18T03:50:53.129Z,13.85
2023-01-18T03:53:54.695Z,26.63
2023-01-18T03:56:24.100Z,25.55
2023-01-18T03:58:54.337Z,26.83
2023-01-18T04:01:21.684Z,21.85
2023-01-18T04:03:48.437Z,19.05
2023-01-18T04:06:17.282Z,14.32
2023-01-18T04:08:46.802Z,16.70
2023-01-18T04:11:13.902Z,35.42
2023-01-18T04:13:40.540Z,32.97
2023-01-18T04:16:07.491Z,27.95
2023-01-18T04:18:34.135Z,26.25
2023-01-18T04:21:04.045Z,30.05
2023-01-18T04:23:30.699Z,32.03
2023-01-18T04:26:11.969Z,41.47
2023-01-18T04:28:38.544Z,31.65
2023-01-18T04:31:05.596Z,29.52
2023-01-18T04:33:32.624Z,23.70
2023-01-18T04:35:59.274Z,25.15
2023-01-18T04:38:26.238Z,20.00
2023-01-18T04:40:54.400Z,29.80
2023-01-18T04:43:22.637Z,27.92
2023-01-18T04:45:59.127Z,24.02
2023-01-18T04:48:30.847Z,27.63
2023-01-18T04:50:57.481Z,23.98
2023-01-18T04:53:24.174Z,20.88
2023-01-18T04:55:51.348Z,20.23
2023-01-18T04:58:17.941Z,23.45
2023-01-18T05:00:44.794Z,14.32
2023-01-18T05:03:12.398Z,18.83
2023-01-18T05:05:39.214Z,18.88
2023-01-18T05:08:06.054Z,21.95
2023-01-18T05:10:33.731Z,25.95
2023-01-18T05:13:00.931Z,29.83
2023-01-18T05:15:27.891Z,25.75
2023-01-18T05:17:54.491Z,35.97
2023-01-18T05:20:21.060Z,18.77
2023-01-18T05:22:47.722Z,15.93
2023-01-18T05:25:14.513Z,15.52
2023-01-18T05:27:41.163Z,16.02
2023-01-18T05:30:09.778Z,16.23
2023-01-18T05:32:36.404Z,24.23
2023-01-18T05:35:05.113Z,21.77
2023-01-18T05:37:31.751Z,24.50
2023-01-18T05:39:59.378Z,25.17
2023-01-18T05:42:26.020Z,40.70
2023-01-18T05:44:52.742Z,37.70
2023-01-18T05:47:19.374Z,35.10
2023-01-18T05:49:45.972Z,29.98
2023-01-18T05:52:12.830Z,56.90
2023-01-18T05:54:39.536Z,36.08
2023-01-18T05:57:06.124Z,37.53
2023-01-18T05:59:32.737Z,41.97
2023-01-18T06:01:59.410Z,35.17
2023-01-18T06:04:26.139Z,43.90
2023-01-18T06:06:52.786Z,44.75
2023-01-18T06:09:19.385Z,40.60
2023-01-18T06:11:45.994Z,39.00
2023-01-18T06:14:12.790Z,32.97
2023-01-18T06:16:39.548Z,34.15
2023-01-18T06:19:06.140Z,32.63
2023-01-18T06:21:32.885Z,37.67
2023-01-18T06:23:59.543Z,29.27
2023-01-18T06:26:26.225Z,30.83
2023-01-18T06:28:53.625Z,35.47
2023-01-18T06:31:20.368Z,38.65
2023-01-18T06:33:47.113Z,40.90
2023-01-18T06:36:13.729Z,31.58
2023-01-18T06:38:41.418Z,42.95
2023-01-18T06:41:09.302Z,44.13
2023-01-18T06:43:35.957Z,45.13
2023-01-18T06:46:02.937Z,39.35
2023-01-18T06:48:29.930Z,46.22
2023-01-18T06:50:57.521Z,31.40
2023-01-18T06:53:24.610Z,35.22
2023-01-18T06:55:58.567Z,38.92
2023-01-18T06:58:26.574Z,31.88
2023-01-18T07:00:57.663Z,28.70
2023-01-18T07:03:25.611Z,28.38
2023-01-18T07:06:00.186Z,32.47
2023-01-18T07:08:28.033Z,36.10
2023-01-18T07:10:54.958Z,27.52
2023-01-18T07:13:22.256Z,33.88
2023-01-18T07:16:00.776Z,33.58
2023-01-18T07:18:29.626Z,33.15
2023-01-18T07:21:00.846Z,22.13
2023-01-18T07:23:28.711Z,33.78
2023-01-18T07:26:06.025Z,35.05
2023-01-18T07:28:33.516Z,37.22
2023-01-18T07:31:01.076Z,44.80
2023-01-18T07:33:28.637Z,46.10
2023-01-18T07:35:56.809Z,35.92
2023-01-18T07:38:24.106Z,35.10
2023-01-18T07:41:14.305Z,64.43
2023-01-18T07:43:42.789Z,51.85
2023-01-18T07:46:12.239Z,54.05
2023-01-18T07:48:39.186Z,36.00
2023-01-18T07:51:08.771Z,34.72
2023-01-18T07:53:37.265Z,25.63
2023-01-18T07:56:08.134Z,22.48
2023-01-18T07:58:36.384Z,33.33
2023-01-18T08:01:11.568Z,50.30
2023-01-18T08:03:41.398Z,67.68
2023-01-18T08:06:13.511Z,51.60
2023-01-18T08:08:40.627Z,46.70
2023-01-18T08:11:07.856Z,46.15
2023-01-18T08:13:34.548Z,47.30
2023-01-18T08:16:03.093Z,48.38
2023-01-18T08:18:29.993Z,47.45
2023-01-18T08:20:56.842Z,59.30
2023-01-18T08:23:23.777Z,69.30
2023-01-18T08:25:51.162Z,42.33
2023-01-18T08:28:18.793Z,49.35
2023-01-18T08:30:47.291Z,33.38
2023-01-18T08:33:14.775Z,49.90
2023-01-18T08:35:42.765Z,46.90
2023-01-18T08:38:09.860Z,48.95
2023-01-18T08:40:36.733Z,52.38
2023-01-18T08:43:06.686Z,60.83
2023-01-18T08:45:35.092Z,44.83
2023-01-18T08:48:04.387Z,43.28
2023-01-18T08:50:32.650Z,40.75
2023-01-18T08:53:00.591Z,54.67
2023-01-18T08:55:28.444Z,65.90
2023-01-18T09:24:54.029Z,41.88
2023-01-18T09:27:20.583Z,45.08
2023-01-18T09:29:52.241Z,45.38
2023-01-18T09:32:20.227Z,45.80
2023-01-18T09:34:50.871Z,50.90
2023-01-18T09:37:19.233Z,52.15
2023-01-18T09:39:51.773Z,49.75
2023-01-18T09:42:29.898Z,38.38
2023-01-18T09:44:59.821Z,58.30
2023-01-18T09:47:39.498Z,39.80
2023-01-18T09:50:13.599Z,40.38
2023-01-18T09:52:52.246Z,37.25
2023-01-18T09:55:28.925Z,53.60
2023-01-18T09:58:16.808Z,54.22
2023-01-18T10:00:47.677Z,52.40
2023-01-18T10:03:26.315Z,48.72
2023-01-18T11:31:16.086Z,4.63
2023-01-18T11:33:55.984Z,4.78
2023-01-18T11:36:41.163Z,8.70
2023-01-18T11:39:23.607Z,8.73
2023-01-18T11:41:52.872Z,4.82
2023-01-18T11:44:25.634Z,9.13
2023-01-18T12:12:45.138Z,7.57
2023-01-18T12:15:23.613Z,9.43
2023-01-18T12:18:13.928Z,6.80
2023-01-18T12:21:03.800Z,4.20
2023-01-18T16:09:01.731Z,30.63
2023-01-18T16:11:38.945Z,24.70
2023-01-18T16:14:16.932Z,28.23
2023-01-18T16:16:43.969Z,25.80
2023-01-18T16:19:21.355Z,29.00
2023-01-18T16:22:07.073Z,23.20
2023-01-18T16:24:46.152Z,42.20
2023-01-18T16:27:23.047Z,33.95
2023-01-18T16:29:52.932Z,33.22
2023-01-18T16:32:28.080Z,30.55
2023-01-18T16:35:00.912Z,40.28
2023-01-18T16:37:27.891Z,49.60
2023-01-18T16:39:55.428Z,44.53
2023-01-18T16:42:29.622Z,43.40
2023-01-18T16:44:59.865Z,35.03
2023-01-18T16:47:26.537Z,46.55
2023-01-18T16:49:53.227Z,61.75
2023-01-18T16:52:19.895Z,86.50
2023-01-18T16:54:46.671Z,81.00
2023-01-18T16:57:23.861Z,59.20
2023-01-18T16:59:50.959Z,49.60
2023-01-18T17:02:17.704Z,43.08
2023-01-18T17:04:46.635Z,33.10
2023-01-18T17:07:13.869Z,31.20
2023-01-18T17:09:48.553Z,22.48
2023-01-18T17:12:16.203Z,24.63
2023-01-18T17:14:42.963Z,27.25
2023-01-18T17:17:11.083Z,28.40
2023-01-18T17:19:38.161Z,22.17
2023-01-18T17:22:06.297Z,27.70
2023-01-18T17:24:33.044Z,34.47
2023-01-18T17:26:59.699Z,48.45
2023-01-18T17:29:26.324Z,50.45
2023-01-18T17:31:53.410Z,56.35
2023-01-18T17:34:29.531Z,66.28
2023-01-18T17:36:58.401Z,54.88
2023-01-18T17:39:36.908Z,54.45
2023-01-18T17:42:16.448Z,55.80
2023-01-18T17:44:45.714Z,59.83
2023-01-18T17:47:13.039Z,60.28
2023-01-18T17:49:39.707Z,68.07
2023-01-18T17:52:06.368Z,58.50
2023-01-18T17:54:34.902Z,56.97
2023-01-18T17:57:01.707Z,53.08
2023-01-18T17:59:28.417Z,57.65
2023-01-18T18:01:55.216Z,54.28
2023-01-18T18:04:21.871Z,50.40
2023-01-18T18:06:54.270Z,59.75
2023-01-18T18:09:21.426Z,54.78
2023-01-18T18:14:29.050Z,62.42
2023-01-18T18:16:55.696Z,66.18
2023-01-18T18:19:33.936Z,68.10
2023-01-18T18:22:01.241Z,53.17
2023-01-18T18:24:27.996Z,50.63
2023-01-18T18:26:54.640Z,50.45
2023-01-18T18:29:21.358Z,44.35
2023-01-18T18:31:48.028Z,41.33
2023-01-18T18:34:14.684Z,41.22
2023-01-18T18:36:41.395Z,36.17
2023-01-18T18:39:08.955Z,43.45
2023-01-18T18:41:35.799Z,52.40
2023-01-18T18:44:02.952Z,51.00
2023-01-18T18:46:29.798Z,46.03
2023-01-18T18:48:56.673Z,40.50
2023-01-18T18:51:26.508Z,41.63
2023-01-18T18:53:53.365Z,45.72
2023-01-18T18:56:20.779Z,49.22
2023-01-18T18:58:51.204Z,44.80
2023-01-18T19:01:23.652Z,51.22
2023-01-18T19:03:51.982Z,41.60
2023-01-18T19:06:20.550Z,45.38
2023-01-18T19:08:47.575Z,42.13
2023-01-18T19:11:15.685Z,55.60
2023-01-18T19:13:43.388Z,79.95
2023-01-18T19:16:10.583Z,49.88
2023-01-18T19:18:37.343Z,49.25
2023-01-18T19:21:04.772Z,49.95
2023-01-18T19:23:31.618Z,48.65
2023-01-18T19:25:58.894Z,47.17
2023-01-18T19:28:25.581Z,49.35
2023-01-18T19:30:52.221Z,61.08
2023-01-18T19:33:18.807Z,65.65
2023-01-18T19:35:46.119Z,65.60
2023-01-18T19:38:13.589Z,63.63
2023-01-18T19:40:40.198Z,60.20
2023-01-18T19:43:09.323Z,51.88
2023-01-18T19:45:37.617Z,58.25
2023-01-18T19:48:05.225Z,49.22
2023-01-18T19:50:32.113Z,52.72
2023-01-18T19:52:59.737Z,46.25
2023-01-18T19:55:26.594Z,53.15
2023-01-18T19:57:55.924Z,54.70
2023-01-18T20:00:22.907Z,66.38
2023-01-18T20:02:49.635Z,58.92
2023-01-18T20:05:16.790Z,61.22
2023-01-18T20:07:43.564Z,61.55
2023-01-18T20:10:10.912Z,63.25
2023-01-18T20:12:38.448Z,58.85
2023-01-18T20:15:06.296Z,59.95
2023-01-18T20:17:33.179Z,50.33
2023-01-18T20:19:59.853Z,58.15
2023-01-18T20:22:26.569Z,53.33
2023-01-18T20:24:53.565Z,57.30
2023-01-18T20:27:23.071Z,57.33
2023-01-18T20:29:53.337Z,56.55
2023-01-18T20:32:19.991Z,55.45
2023-01-18T20:34:47.442Z,56.08
2023-01-18T20:37:15.477Z,44.08
2023-01-18T20:39:42.605Z,48.80
2023-01-18T20:42:09.437Z,36.95
2023-01-18T20:44:36.133Z,45.60
2023-01-18T20:47:03.241Z,53.85
2023-01-18T20:49:37.768Z,49.97
2023-01-18T20:52:06.868Z,50.47
2023-01-18T20:54:35.679Z,55.38
2023-01-18T20:57:03.473Z,51.88
2023-01-18T20:59:30.159Z,47.13
2023-01-18T21:01:57.028Z,58.72
2023-01-18T21:04:24.814Z,49.47
2023-01-18T21:06:51.440Z,47.63
2023-01-18T21:09:18.220Z,49.53
2023-01-18T21:11:45.011Z,51.63
2023-01-18T21:14:12.793Z,41.30
2023-01-18T21:16:39.436Z,47.28
2023-01-18T21:19:06.136Z,42.30
2023-01-18T21:21:32.872Z,48.63
2023-01-18T21:24:00.153Z,46.97
2023-01-18T21:26:27.087Z,42.42
2023-01-18T21:28:54.232Z,40.67
2023-01-18T21:31:21.639Z,51.80
2023-01-18T21:33:48.306Z,41.50
2023-01-18T21:36:20.350Z,38.83
2023-01-18T21:38:47.271Z,35.10
2023-01-18T21:41:32.537Z,45.78
2023-01-18T21:44:21.097Z,34.10
2023-01-18T21:46:49.335Z,40.13
2023-01-18T21:52:39.833Z,38.53
2023-01-18T21:55:06.845Z,45.47
2023-01-18T21:57:33.430Z,42.88
2023-01-18T22:00:00.036Z,33.38
2023-01-18T22:02:26.737Z,37.20
2023-01-18T22:05:00.198Z,37.45
2023-01-18T22:07:28.150Z,31.58
2023-01-18T22:10:04.163Z,31.77
2023-01-18T22:12:33.432Z,34.20
2023-01-18T22:15:02.141Z,33.90
2023-01-18T22:17:29.158Z,30.27
2023-01-18T22:19:58.228Z,34.67
2023-01-18T22:22:24.982Z,30.92
2023-01-18T22:24:51.888Z,30.42
2023-01-18T22:27:18.517Z,30.25
2023-01-18T22:29:45.426Z,28.60
2023-01-18T22:32:12.165Z,27.40
2023-01-18T22:34:38.838Z,26.30
2023-01-18T22:37:05.830Z,26.02
2023-01-18T22:39:32.472Z,26.98
2023-01-18T22:41:59.157Z,27.55
2023-01-18T22:44:25.845Z,31.73
2023-01-18T22:46:52.484Z,29.95
2023-01-18T22:49:19.194Z,27.80
2023-01-18T22:51:45.861Z,29.75
2023-01-18T22:54:14.914Z,33.10
2023-01-18T22:56:41.617Z,29.33
2023-01-18T22:59:08.788Z,26.70
2023-01-18T23:01:35.532Z,29.55
2023-01-18T23:04:03.918Z,27.35
2023-01-18T23:06:48.002Z,26.75
2023-01-18T23:09:16.265Z,28.65
2023-01-18T23:11:44.895Z,29.60
2023-01-18T23:14:30.511Z,33.92
2023-01-18T23:17:15.379Z,33.53
2023-01-18T23:19:42.016Z,36.42
2023-01-18T23:22:08.638Z,42.17
2023-01-18T23:24:36.640Z,48.95
2023-01-18T23:27:05.556Z,40.38
2023-01-18T23:29:32.229Z,37.00
2023-01-18T23:31:59.063Z,39.33
2023-01-18T23:34:26.051Z,40.00
2023-01-18T23:36:53.100Z,34.10
2023-01-18T23:39:38.773Z,30.45
2023-01-18T23:42:24.072Z,29.10
2023-01-18T23:45:09.250Z,27.13
2023-01-18T23:47:54.636Z,23.80
2023-01-18T23:50:40.088Z,28.92
2023-01-18T23:53:30.501Z,24.42
2023-01-18T23:55:57.683Z,27.38
2023-01-18T23:58:27.390Z,20.55
